Time;durP1;ratioP1;P1;durP2;ratioP2;P2;SDS_P1;SDS_P2;PMS_P1;PMS_P2;Temp;Humidity;BMP_temperature;BMP_pressure;BME280_temperature;BME280_humidity;BME280_pressure;Samples;Min_cycle;Max_cycle;Signal;HPM_P1;HPM_P2
2022/12/31 00:00:46;;;;;;;;;;;12.90;99.90;;;;;;5056665;28;19925;-62
2022/12/31 00:03:11;;;;;;;;;;;12.80;99.90;;;;;;5040821;28;19909;-61
2022/12/31 00:05:37;;;;;;;;;;;12.80;99.90;;;;;;5041650;28;19932;-62
2022/12/31 00:08:02;;;;;;;;;;;12.80;99.90;;;;;;5040907;28;19908;-61
2022/12/31 00:10:28;;;;;;;;;;;12.80;99.90;;;;;;5038200;28;19912;-62
2022/12/31 00:12:54;;;;;;;;;;;12.80;99.90;;;;;;5039045;28;20021;-61
2022/12/31 00:15:19;;;;;;;;;;;12.80;99.90;;;;;;5040800;28;19958;-61
2022/12/31 00:17:45;;;;;;;;;;;12.80;99.90;;;;;;5041533;28;19909;-61
2022/12/31 00:20:10;;;;;;;;;;;12.80;99.90;;;;;;5040906;28;20381;-61
2022/12/31 00:22:35;;;;;;;;;;;12.80;99.90;;;;;;5038484;28;19979;-61
2022/12/31 00:25:01;;;;;;;;;;;12.80;99.90;;;;;;5040656;28;19909;-61
2022/12/31 00:27:29;;;;;;;;;;;12.70;99.90;;;;;;5038410;28;19991;-61
2022/12/31 00:29:54;;;;;;;;;;;12.80;99.90;;;;;;5038794;28;19963;-62
2022/12/31 00:32:20;;;;;;;;;;;12.70;99.90;;;;;;5040927;28;19913;-61
2022/12/31 00:34:45;;;;;;;;;;;12.70;99.90;;;;;;5039703;28;19964;-62
2022/12/31 00:37:11;;;;;;;;;;;12.80;99.90;;;;;;5039004;28;19916;-61
2022/12/31 00:39:36;;;;;;;;;;;12.80;99.90;;;;;;5039164;28;19912;-61
2022/12/31 00:42:02;;;;;;;;;;;12.80;99.90;;;;;;5040520;28;19908;-61
2022/12/31 00:44:27;;;;;;;;;;;12.80;99.90;;;;;;5036445;28;19940;-61
2022/12/31 00:46:52;;;;;;;;;;;12.80;99.90;;;;;;5040124;28;19905;-61
2022/12/31 00:49:18;;;;;;;;;;;12.80;99.90;;;;;;5040338;28;20027;-62
2022/12/31 00:51:45;;;;;;;;;;;12.80;99.90;;;;;;5040123;28;20383;-62
2022/12/31 00:54:11;;;;;;;;;;;12.80;99.90;;;;;;5039595;28;20001;-62
2022/12/31 00:56:36;;;;;;;;;;;12.70;99.90;;;;;;5041814;28;19944;-62
2022/12/31 00:59:02;;;;;;;;;;;12.70;99.90;;;;;;5038430;28;19919;-61
2022/12/31 01:01:28;;;;;;;;;;;12.50;99.90;;;;;;5038793;28;20091;-61
2022/12/31 01:03:56;;;;;;;;;;;12.50;99.90;;;;;;5015581;28;19951;-61
2022/12/31 01:06:22;;;;;;;;;;;12.40;99.90;;;;;;5016114;28;20416;-62
2022/12/31 01:08:48;;;;;;;;;;;12.40;99.90;;;;;;5036936;28;19908;-61
2022/12/31 01:11:22;;;;;;;;;;;12.30;99.90;;;;;;5035701;28;20287;-61
2022/12/31 01:13:59;;;;;;;;;;;12.40;99.90;;;;;;5017157;28;19960;-62
2022/12/31 01:16:30;;;;;;;;;;;12.30;99.90;;;;;;5039892;28;19905;-61
2022/12/31 01:18:57;;;;;;;;;;;12.30;99.90;;;;;;5036241;28;19919;-61
2022/12/31 01:21:23;;;;;;;;;;;12.30;99.90;;;;;;5037108;28;20391;-61
2022/12/31 01:23:48;;;;;;;;;;;12.30;99.90;;;;;;5039257;28;19905;-61
2022/12/31 01:26:14;;;;;;;;;;;12.30;99.90;;;;;;5038563;28;19911;-61
2022/12/31 01:28:40;;;;;;;;;;;12.30;99.90;;;;;;5026041;28;19917;-61
2022/12/31 01:31:07;;;;;;;;;;;12.30;99.90;;;;;;5034037;28;19905;-61
2022/12/31 01:33:33;;;;;;;;;;;12.30;99.90;;;;;;5038539;28;19999;-61
2022/12/31 01:36:03;;;;;;;;;;;12.30;99.90;;;;;;5030507;28;19905;-61
2022/12/31 01:38:29;;;;;;;;;;;12.30;99.90;;;;;;5032652;28;20453;-61
2022/12/31 01:40:54;;;;;;;;;;;12.30;99.90;;;;;;5041725;28;20003;-61
2022/12/31 01:43:19;;;;;;;;;;;12.20;99.90;;;;;;5039224;28;19909;-61
2022/12/31 01:45:46;;;;;;;;;;;12.30;99.90;;;;;;5039234;28;19909;-61
2022/12/31 01:48:14;;;;;;;;;;;12.30;99.90;;;;;;5039343;28;19909;-61
2022/12/31 01:50:39;;;;;;;;;;;12.30;99.90;;;;;;5036419;28;19909;-62
2022/12/31 01:53:06;;;;;;;;;;;12.20;99.90;;;;;;5038158;28;19912;-61
2022/12/31 01:55:43;;;;;;;;;;;12.20;99.90;;;;;;5036105;28;19917;-61
2022/12/31 01:58:14;;;;;;;;;;;12.20;99.90;;;;;;5039502;28;19924;-61
2022/12/31 02:00:40;;;;;;;;;;;12.30;99.90;;;;;;5036665;28;19917;-61
2022/12/31 02:03:06;;;;;;;;;;;12.20;99.90;;;;;;5037925;28;19911;-61
2022/12/31 02:05:31;;;;;;;;;;;12.30;99.90;;;;;;5039267;28;19909;-61
2022/12/31 02:07:57;;;;;;;;;;;12.20;99.90;;;;;;5038581;28;19909;-62
2022/12/31 02:10:23;;;;;;;;;;;12.20;99.90;;;;;;5037059;28;19904;-61
2022/12/31 02:12:49;;;;;;;;;;;12.20;99.90;;;;;;5022651;28;19913;-61
2022/12/31 02:15:15;;;;;;;;;;;12.20;99.90;;;;;;5036529;28;19909;-61
2022/12/31 02:17:55;;;;;;;;;;;12.20;99.90;;;;;;5036367;28;19920;-61
2022/12/31 02:20:44;;;;;;;;;;;12.20;99.90;;;;;;5035286;28;19905;-61
2022/12/31 07:07:24;;;;;;;6.30;2.10;;;12.80;99.90;;;;;;5122213;27;20410;-63
2022/12/31 07:10:12;;;;;;;2.50;1.90;;;13.70;99.90;;;;;;5126750;27;20020;-63
2022/12/31 07:13:06;;;;;;;2.40;1.73;;;13.60;99.90;;;;;;5117073;27;20016;-63
2022/12/31 07:15:53;;;;;;;4.82;1.75;;;13.60;99.90;;;;;;5124763;27;20035;-63
2022/12/31 07:18:43;;;;;;;4.22;1.48;;;13.50;99.90;;;;;;5123271;27;20016;-63
2022/12/31 07:21:12;;;;;;;2.60;1.08;;;13.60;99.90;;;;;;5126469;27;20038;-63
2022/12/31 07:23:39;;;;;;;5.00;1.77;;;13.60;99.90;;;;;;5120485;27;20111;-63
2022/12/31 07:26:26;;;;;;;2.53;1.13;;;13.70;99.90;;;;;;5120042;27;20033;-63
2022/12/31 07:29:26;;;;;;;3.33;1.33;;;13.80;99.90;;;;;;5110931;28;20102;-63
2022/12/31 07:32:14;;;;;;;1.73;0.68;;;13.80;99.90;;;;;;5066397;28;20044;-63
2022/12/31 07:34:51;;;;;;;3.38;0.63;;;13.90;99.90;;;;;;5108857;28;20036;-63
2022/12/31 07:37:32;;;;;;;2.38;0.55;;;14.00;99.90;;;;;;5103555;28;20039;-63
2022/12/31 07:40:07;;;;;;;3.35;0.80;;;14.00;99.90;;;;;;5102867;27;20020;-63
2022/12/31 07:42:43;;;;;;;3.50;0.50;;;14.00;99.90;;;;;;5108350;28;20072;-63
2022/12/31 07:45:18;;;;;;;2.42;0.50;;;14.00;99.90;;;;;;5113408;28;20552;-65
2022/12/31 07:47:43;;;;;;;2.28;0.30;;;13.90;99.90;;;;;;5116107;28;20023;-65
2022/12/31 07:50:17;;;;;;;1.17;0.30;;;13.80;99.90;;;;;;5104332;27;20706;-65
2022/12/31 07:52:43;;;;;;;0.70;0.30;;;13.80;99.90;;;;;;5125939;27;20407;-64
2022/12/31 07:55:09;;;;;;;2.85;0.60;;;13.80;99.90;;;;;;5118756;28;20476;-65
2022/12/31 07:57:41;;;;;;;2.35;0.60;;;13.80;99.90;;;;;;5114288;27;20019;-65
2022/12/31 08:00:11;;;;;;;4.53;1.05;;;13.80;99.90;;;;;;5124736;27;20020;-65
2022/12/31 08:03:09;;;;;;;2.72;0.57;;;13.90;99.90;;;;;;5119057;28;20035;-65
2022/12/31 08:05:51;;;;;;;1.83;0.60;;;13.90;99.90;;;;;;5122194;28;20089;-64
2022/12/31 08:08:48;;;;;;;1.83;0.47;;;14.00;99.90;;;;;;5103131;28;20538;-64
2022/12/31 08:11:40;;;;;;;4.13;0.63;;;14.00;99.90;;;;;;5105419;28;20032;-65
2022/12/31 08:14:10;;;;;;;1.73;0.50;;;14.00;99.90;;;;;;5109904;28;20030;-65
2022/12/31 08:16:36;;;;;;;3.22;0.68;;;14.00;99.90;;;;;;5111074;28;20022;-65
2022/12/31 08:19:03;;;;;;;4.35;0.70;;;14.00;99.90;;;;;;5110088;28;20028;-65
2022/12/31 08:22:00;;;;;;;1.52;0.50;;;14.00;99.90;;;;;;5111297;28;20027;-65
2022/12/31 08:24:40;;;;;;;2.78;0.80;;;14.00;99.90;;;;;;5108019;28;20020;-63
2022/12/31 08:27:32;;;;;;;5.22;0.73;;;13.80;99.90;;;;;;5108096;27;20053;-64
2022/12/31 08:30:08;;;;;;;4.03;0.50;;;13.60;99.90;;;;;;5090989;28;20035;-64
2022/12/31 08:32:58;;;;;;;2.22;0.50;;;13.50;99.90;;;;;;5125242;27;20057;-64
2022/12/31 08:35:47;;;;;;;;;;;13.40;99.90;;;;;;5109749;28;20055;-64
2022/12/31 08:38:22;;;;;;;2.92;0.25;;;13.30;99.90;;;;;;5072642;28;19911;-64
2022/12/31 08:41:22;;;;;;;2.13;0.30;;;13.20;99.90;;;;;;5108501;28;20012;-64
2022/12/31 08:44:02;;;;;;;;;;;13.20;99.90;;;;;;5110927;28;20046;-64
2022/12/31 08:46:45;;;;;;;2.10;0.28;;;13.20;99.90;;;;;;5080346;28;19994;-64
2022/12/31 08:49:13;;;;;;;0.60;0.20;;;13.20;99.90;;;;;;5096745;28;20027;-64
2022/12/31 08:51:39;;;;;;;1.30;0.20;;;13.20;99.90;;;;;;5097142;28;20023;-64
2022/12/31 08:54:05;;;;;;;1.42;0.30;;;13.20;99.90;;;;;;5098207;28;20028;-64
2022/12/31 08:57:00;;;;;;;3.40;0.40;;;13.20;99.90;;;;;;5107859;28;20107;-64
2022/12/31 08:59:53;;;;;;;1.15;0.40;;;13.20;99.90;;;;;;5103597;28;20077;-64
2022/12/31 09:02:42;;;;;;;0.98;0.40;;;13.30;99.90;;;;;;5110258;28;20052;-65
2022/12/31 09:05:34;;;;;;;2.92;0.60;;;13.40;99.90;;;;;;5102495;28;20043;-65
2022/12/31 09:08:15;;;;;;;2.22;0.50;;;13.50;99.90;;;;;;5108724;28;20020;-65
2022/12/31 09:10:44;;;;;;;3.30;0.70;;;13.60;99.90;;;;;;5093159;28;20016;-65
2022/12/31 09:13:31;;;;;;;3.53;0.70;;;13.70;99.90;;;;;;5110415;28;20094;-64
2022/12/31 09:16:05;;;;;;;2.05;0.65;;;13.90;99.90;;;;;;5098191;28;20477;-65
2022/12/31 09:18:36;;;;;;;2.90;0.60;;;14.00;99.90;;;;;;5082934;28;20035;-64
2022/12/31 09:21:02;;;;;;;1.73;0.60;;;14.10;99.90;;;;;;5104996;28;20113;-64
2022/12/31 09:23:28;;;;;;;3.03;0.60;;;14.20;99.90;;;;;;5074722;28;20119;-64
2022/12/31 09:26:05;;;;;;;3.22;0.50;;;14.30;99.90;;;;;;5104510;28;20044;-64
2022/12/31 09:28:58;;;;;;;4.38;0.55;;;14.40;99.90;;;;;;5109746;27;20019;-64
2022/12/31 09:31:34;;;;;;;1.95;0.50;;;14.50;99.90;;;;;;5101418;28;20046;-64
2022/12/31 09:34:17;;;;;;;3.17;0.75;;;14.60;99.90;;;;;;5108688;28;20442;-64
2022/12/31 09:36:48;;;;;;;3.53;0.68;;;14.70;99.90;;;;;;5080909;28;20101;-64
2022/12/31 09:39:41;;;;;;;2.13;0.60;;;14.80;99.90;;;;;;5101570;28;20092;-64
2022/12/31 09:42:21;;;;;;;3.85;0.50;;;14.90;99.90;;;;;;5085722;28;20365;-64
2022/12/31 09:45:06;;;;;;;2.67;0.40;;;14.90;99.90;;;;;;5110554;28;20012;-64
2022/12/31 09:47:54;;;;;;;6.05;0.57;;;15.00;99.90;;;;;;5109845;28;20028;-64
2022/12/31 09:50:47;;;;;;;1.65;0.70;;;15.10;99.90;;;;;;5095419;28;20020;-64
2022/12/31 09:53:15;;;;;;;1.88;0.50;;;15.10;99.90;;;;;;5095219;28;20051;-64
2022/12/31 09:55:47;;;;;;;5.82;0.65;;;15.10;99.90;;;;;;5095215;28;20032;-65
2022/12/31 09:58:33;;;;;;;4.05;0.60;;;15.10;99.90;;;;;;5096121;28;20027;-65
2022/12/31 10:01:18;;;;;;;3.38;0.47;;;14.90;99.90;;;;;;5092033;28;20361;-65
2022/12/31 10:04:05;;;;;;;1.58;0.47;;;14.70;99.90;;;;;;5091885;28;20498;-65
2022/12/31 10:06:58;;;;;;;2.00;0.47;;;14.70;99.90;;;;;;5105348;28;20051;-64
2022/12/31 10:09:55;;;;;;;4.47;1.15;;;14.70;99.90;;;;;;5078032;28;20020;-64
2022/12/31 10:13:03;;;;;;;3.67;0.63;;;14.70;99.90;;;;;;5087921;28;20388;-64
2022/12/31 10:15:45;;;;;;;3.13;0.70;;;14.80;99.90;;;;;;5076236;28;20105;-64
2022/12/31 10:18:35;;;;;;;5.15;1.15;;;14.80;99.90;;;;;;5095558;28;20481;-64
2022/12/31 10:21:39;;;;;;;1.65;0.50;;;14.80;99.90;;;;;;5105296;28;20142;-64
2022/12/31 10:24:14;;;;;;;3.58;0.65;;;14.80;99.90;;;;;;5093338;28;20050;-64
2022/12/31 10:26:46;;;;;;;3.60;0.60;;;14.80;99.90;;;;;;5099841;28;20103;-65
2022/12/31 10:29:47;;;;;;;2.15;0.45;;;14.80;99.90;;;;;;5097169;28;20039;-65
2022/12/31 10:32:38;;;;;;;5.18;0.98;;;14.80;99.90;;;;;;5076002;28;20020;-65
2022/12/31 10:35:16;;;;;;;3.40;0.60;;;14.80;99.90;;;;;;5073905;28;20392;-64
2022/12/31 10:37:54;;;;;;;3.08;0.70;;;14.90;99.90;;;;;;5101354;28;20035;-64
2022/12/31 10:40:22;;;;;;;4.93;0.73;;;14.90;99.90;;;;;;5091294;28;20016;-64
2022/12/31 10:43:25;;;;;;;3.15;0.80;;;14.90;99.90;;;;;;5090453;28;20044;-64
2022/12/31 10:46:08;;;;;;;5.43;0.70;;;14.90;99.90;;;;;;5096116;28;20139;-65
2022/12/31 10:49:09;;;;;;;3.72;0.68;;;14.90;99.90;;;;;;5109470;28;20111;-65
2022/12/31 10:51:50;;;;;;;2.92;0.60;;;14.90;99.90;;;;;;5108336;28;20502;-65
2022/12/31 10:54:33;;;;;;;3.58;0.65;;;14.90;99.90;;;;;;5110036;28;20368;-64
2022/12/31 10:57:10;;;;;;;3.83;0.80;;;14.90;99.90;;;;;;5078257;28;20032;-65
2022/12/31 11:00:06;;;;;;;4.57;1.40;;;15.00;99.90;;;;;;5103448;28;20024;-65
2022/12/31 11:03:10;;;;;;;3.60;0.85;;;15.00;99.90;;;;;;5103914;28;20091;-65
2022/12/31 11:05:56;;;;;;;5.32;1.10;;;15.10;99.90;;;;;;5099637;28;20075;-65
2022/12/31 11:08:53;;;;;;;5.10;1.10;;;15.10;99.90;;;;;;5097918;28;20019;-65
2022/12/31 11:11:43;;;;;;;3.72;0.98;;;15.20;99.90;;;;;;5093931;28;20016;-65
2022/12/31 11:14:12;;;;;;;3.65;1.20;;;15.20;99.90;;;;;;5072492;28;20020;-65
2022/12/31 11:17:06;;;;;;;7.00;1.00;;;15.20;99.90;;;;;;5091456;28;20028;-65
2022/12/31 11:20:13;;;;;;;5.68;1.35;;;15.30;99.90;;;;;;5091007;28;20083;-65
2022/12/31 11:22:47;;;;;;;5.97;1.15;;;15.40;99.90;;;;;;5090877;28;20095;-65
2022/12/31 11:25:34;;;;;;;3.63;0.80;;;15.40;99.90;;;;;;5091531;28;20028;-65
2022/12/31 11:28:25;;;;;;;5.65;0.90;;;15.50;99.90;;;;;;5091306;28;20362;-65
2022/12/31 11:31:18;;;;;;;3.58;0.80;;;15.50;99.90;;;;;;5090586;28;20020;-65
2022/12/31 11:34:09;;;;;;;5.90;1.08;;;15.60;99.90;;;;;;5092036;28;20035;-65
2022/12/31 11:37:11;;;;;;;2.97;0.68;;;15.60;99.90;;;;;;5092547;28;20024;-65
2022/12/31 11:39:57;;;;;;;3.67;0.80;;;15.70;99.90;;;;;;5103631;28;20088;-65
2022/12/31 11:42:47;;;;;;;3.97;0.80;;;15.80;99.90;;;;;;5112148;28;20028;-65
2022/12/31 11:45:18;;;;;;;;;;;15.90;99.90;;;;;;5097307;28;20534;-65
2022/12/31 11:48:09;;;;;;;3.10;0.85;;;15.90;99.90;;;;;;5114258;28;20020;-64
2022/12/31 11:50:49;;;;;;;2.97;0.57;;;16.00;99.90;;;;;;5104875;28;20019;-65
2022/12/31 11:53:33;;;;;;;3.55;0.93;;;16.10;99.90;;;;;;5078703;28;20041;-64
2022/12/31 11:56:10;;;;;;;3.75;0.70;;;16.10;99.90;;;;;;5108180;28;20070;-65
2022/12/31 11:58:36;;;;;;;5.00;1.00;;;16.20;99.90;;;;;;5093869;28;20094;-64
2022/12/31 12:01:29;;;;;;;3.60;0.77;;;16.20;99.90;;;;;;5096022;27;20103;-64
2022/12/31 12:03:55;;;;;;;3.08;0.70;;;16.30;99.90;;;;;;5111612;28;20058;-65
2022/12/31 12:06:29;;;;;;;4.47;0.88;;;16.20;99.90;;;;;;5107097;28;20512;-65
2022/12/31 12:09:00;;;;;;;4.30;0.68;;;16.30;99.90;;;;;;5094061;28;20076;-64
2022/12/31 12:11:30;;;;;;;4.00;0.80;;;16.30;99.90;;;;;;5107217;27;20035;-65
2022/12/31 12:13:56;;;;;;;4.40;0.82;;;16.20;99.90;;;;;;5106184;28;20083;-65
2022/12/31 12:16:23;;;;;;;5.00;1.25;;;16.00;99.90;;;;;;5105728;28;20583;-64
2022/12/31 12:19:02;;;;;;;6.45;1.52;;;15.80;99.90;;;;;;5111017;28;20129;-64
2022/12/31 12:21:28;;;;;;;4.25;0.95;;;15.80;99.90;;;;;;5109101;28;20019;-65
2022/12/31 12:23:57;;;;;;;5.55;1.15;;;15.60;99.90;;;;;;5108052;28;20023;-65
2022/12/31 12:26:27;;;;;;;3.33;1.02;;;15.50;99.90;;;;;;5091603;28;20034;-65
2022/12/31 12:28:52;;;;;;;7.40;1.58;;;15.50;99.90;;;;;;5107981;28;20027;-65
2022/12/31 12:31:21;;;;;;;5.20;1.55;;;15.40;99.90;;;;;;5108897;28;20034;-65
2022/12/31 12:33:48;;;;;;;6.63;1.05;;;15.40;99.90;;;;;;5107384;27;20035;-65
2022/12/31 12:36:16;;;;;;;5.05;0.82;;;15.30;99.90;;;;;;5110195;28;20108;-65
2022/12/31 12:38:43;;;;;;;4.25;0.90;;;15.20;99.90;;;;;;5109986;28;20016;-65
2022/12/31 12:41:25;;;;;;;5.68;1.13;;;15.10;99.90;;;;;;5111327;28;20023;-65
2022/12/31 12:44:06;;;;;;;4.22;0.85;;;15.00;99.90;;;;;;5108010;27;20030;-65
2022/12/31 12:46:46;;;;;;;5.07;1.17;;;15.00;99.90;;;;;;5111551;28;20023;-65
2022/12/31 12:49:24;;;;;;;6.15;1.20;;;14.90;99.90;;;;;;5111650;28;20095;-64
2022/12/31 12:52:17;;;;;;;6.70;1.30;;;14.90;99.90;;;;;;5092709;28;20024;-65
2022/12/31 12:55:13;;;;;;;3.90;1.10;;;14.90;99.90;;;;;;5088891;28;20071;-64
2022/12/31 12:57:49;;;;;;;6.13;0.90;;;15.00;99.90;;;;;;5110991;28;20094;-65
2022/12/31 13:00:23;;;;;;;4.13;1.23;;;15.00;99.90;;;;;;5109692;27;20037;-65
2022/12/31 13:03:21;;;;;;;4.90;1.00;;;15.00;99.90;;;;;;5086420;28;20027;-65
2022/12/31 13:06:05;;;;;;;2.45;0.90;;;15.10;99.90;;;;;;5093081;28;20046;-65
2022/12/31 13:08:53;;;;;;;5.07;1.25;;;15.10;99.90;;;;;;5093294;28;20500;-64
2022/12/31 13:11:42;;;;;;;4.30;0.80;;;15.20;99.90;;;;;;5096067;28;20024;-64
2022/12/31 13:14:34;;;;;;;4.38;0.70;;;15.30;99.90;;;;;;5101342;27;20015;-64
2022/12/31 13:17:43;;;;;;;3.85;0.75;;;15.40;99.90;;;;;;5100984;28;20024;-64
2022/12/31 13:20:40;;;;;;;3.03;0.98;;;15.50;99.90;;;;;;5098408;28;20020;-64
2022/12/31 13:23:21;;;;;;;5.93;0.88;;;15.60;99.90;;;;;;5092096;28;20392;-65
2022/12/31 13:26:19;;;;;;;5.57;0.80;;;15.60;99.90;;;;;;5098403;28;20020;-64
2022/12/31 13:28:47;;;;;;;5.10;1.40;;;15.50;99.90;;;;;;5087178;28;20093;-64
2022/12/31 13:31:22;;;;;;;5.20;0.82;;;15.40;99.90;;;;;;5092485;28;20453;-64
2022/12/31 13:33:55;;;;;;;5.00;1.00;;;15.40;99.90;;;;;;5095516;28;20027;-64
2022/12/31 13:36:23;;;;;;;5.82;0.95;;;15.30;99.90;;;;;;5099815;28;20476;-64
2022/12/31 13:38:54;;;;;;;4.63;0.90;;;15.30;99.90;;;;;;5094172;28;20040;-64
2022/12/31 13:41:26;;;;;;;3.72;1.10;;;15.30;99.90;;;;;;5096935;28;20432;-64
2022/12/31 13:44:22;;;;;;;3.35;0.88;;;15.30;99.90;;;;;;5097675;28;20024;-64
2022/12/31 13:47:01;;;;;;;4.88;0.98;;;15.30;99.90;;;;;;5106258;28;20027;-65
2022/12/31 13:49:32;;;;;;;4.93;1.08;;;15.20;99.90;;;;;;5111486;28;20047;-64
2022/12/31 13:52:19;;;;;;;5.75;1.10;;;15.20;99.90;;;;;;5098485;28;20051;-64
2022/12/31 13:54:54;;;;;;;4.90;1.02;;;15.20;99.90;;;;;;5093754;28;20096;-64
2022/12/31 13:57:33;;;;;;;4.72;1.30;;;15.30;99.90;;;;;;5099956;28;20592;-65
2022/12/31 14:00:04;;;;;;;8.30;1.15;;;15.40;99.90;;;;;;5074053;28;20431;-64
2022/12/31 14:02:54;;;;;;;3.83;1.10;;;15.40;99.90;;;;;;5091314;28;20031;-65
2022/12/31 14:05:30;;;;;;;6.38;1.13;;;15.50;99.90;;;;;;5111089;28;20134;-64
2022/12/31 14:08:01;;;;;;;4.35;1.00;;;15.60;99.90;;;;;;5108280;28;20092;-64
2022/12/31 14:10:48;;;;;;;6.13;1.23;;;15.60;99.90;;;;;;5109945;28;20023;-64
2022/12/31 14:13:33;;;;;;;5.75;0.82;;;15.80;99.90;;;;;;5105364;28;20032;-64
2022/12/31 14:16:20;;;;;;;5.53;1.25;;;15.90;99.90;;;;;;5105366;28;20051;-64
2022/12/31 14:19:24;;;;;;;5.90;1.17;;;15.90;99.90;;;;;;5108823;28;20016;-64
2022/12/31 14:22:11;;;;;;;3.65;1.00;;;16.00;99.90;;;;;;5084856;28;20119;-64
2022/12/31 14:24:50;;;;;;;2.90;0.90;;;16.00;99.90;;;;;;5109027;28;20104;-64
2022/12/31 14:27:24;;;;;;;5.95;1.15;;;16.00;99.90;;;;;;5108749;28;20052;-64
2022/12/31 14:30:13;;;;;;;6.82;1.42;;;16.00;99.90;;;;;;5110246;28;20094;-64
2022/12/31 14:33:00;;;;;;;4.93;1.02;;;16.00;99.90;;;;;;5106382;28;20051;-64
2022/12/31 14:36:01;;;;;;;6.97;1.10;;;16.10;99.90;;;;;;5077534;28;20036;-63
2022/12/31 14:39:05;;;;;;;9.35;1.55;;;16.20;99.90;;;;;;5065065;28;20034;-64
2022/12/31 14:42:02;;;;;;;7.18;1.77;;;16.20;99.90;;;;;;5083028;28;20101;-63
2022/12/31 14:44:44;;;;;;;10.10;1.85;;;16.20;99.90;;;;;;5107220;28;20022;-64
2022/12/31 14:47:42;;;;;;;5.57;1.33;;;16.20;99.90;;;;;;5107746;28;20068;-64
2022/12/31 14:50:14;;;;;;;6.05;1.63;;;16.30;99.90;;;;;;5073097;28;20076;-63
2022/12/31 14:53:08;;;;;;;8.80;1.77;;;16.20;99.90;;;;;;5105081;28;20028;-63
2022/12/31 14:55:36;;;;;;;6.03;1.17;;;16.30;99.90;;;;;;5106571;28;20436;-63
2022/12/31 14:58:23;;;;;;;5.68;1.50;;;16.20;99.90;;;;;;5078320;28;20130;-63
2022/12/31 15:00:55;;;;;;;4.90;1.85;;;16.30;99.90;;;;;;5096837;28;20554;-63
2022/12/31 15:03:22;;;;;;;10.40;1.90;;;16.30;99.90;;;;;;5072516;28;20074;-63
2022/12/31 15:06:00;;;;;;;7.13;1.90;;;16.20;99.90;;;;;;5088687;28;20036;-63
2022/12/31 15:08:46;;;;;;;8.82;1.48;;;16.30;99.90;;;;;;5090930;28;20040;-63
2022/12/31 15:11:25;;;;;;;7.40;1.60;;;16.30;99.90;;;;;;5092226;28;20161;-63
2022/12/31 15:13:54;;;;;;;5.32;1.60;;;16.30;99.90;;;;;;5088307;28;20016;-63
2022/12/31 15:16:32;;;;;;;9.15;1.88;;;16.20;99.90;;;;;;5093002;28;20110;-63
2022/12/31 15:19:43;;;;;;;8.77;1.73;;;16.20;99.90;;;;;;5074025;28;20473;-64
2022/12/31 15:22:39;;;;;;;5.88;2.05;;;16.30;99.90;;;;;;5107935;28;20069;-64
2022/12/31 15:25:21;;;;;;;8.02;1.77;;;16.30;99.90;;;;;;5109507;28;20020;-63
2022/12/31 15:27:48;;;;;;;6.65;1.60;;;16.20;99.90;;;;;;5111392;28;20099;-63
2022/12/31 15:30:34;;;;;;;6.88;2.75;;;16.20;99.90;;;;;;5082984;28;20032;-63
2022/12/31 15:33:03;;;;;;;12.70;1.92;;;16.30;99.90;;;;;;5103300;28;20027;-63
2022/12/31 15:35:43;;;;;;;6.22;1.52;;;16.30;99.90;;;;;;5100057;28;20031;-63
2022/12/31 15:38:12;;;;;;;7.47;1.90;;;16.20;99.90;;;;;;5095585;28;20070;-63
2022/12/31 15:40:49;;;;;;;7.20;1.95;;;16.20;99.90;;;;;;5094844;28;20020;-63
2022/12/31 15:43:32;;;;;;;7.82;1.70;;;16.20;99.90;;;;;;5107063;28;20027;-63
2022/12/31 15:45:59;;;;;;;8.77;2.55;;;16.20;99.90;;;;;;5112398;28;20491;-63
2022/12/31 15:48:41;;;;;;;5.25;1.48;;;16.20;99.90;;;;;;5111092;28;20047;-63
2022/12/31 15:51:16;;;;;;;6.13;1.50;;;16.20;99.90;;;;;;5104463;27;20027;-63
2022/12/31 15:53:50;;;;;;;5.22;1.50;;;16.20;99.90;;;;;;5107426;28;20031;-63
2022/12/31 15:56:38;;;;;;;3.63;1.17;;;16.20;99.90;;;;;;5108601;28;20024;-63
2022/12/31 15:59:10;;;;;;;6.13;1.60;;;16.20;99.90;;;;;;5094761;28;20036;-63
2022/12/31 16:01:38;;;;;;;4.22;1.52;;;16.20;99.90;;;;;;5094269;28;20024;-63
2022/12/31 16:04:13;;;;;;;5.20;1.23;;;16.20;99.90;;;;;;5076042;28;20040;-63
2022/12/31 16:06:38;;;;;;;6.45;1.40;;;16.20;99.90;;;;;;5087724;28;20059;-63
2022/12/31 16:09:16;;;;;;;12.18;2.50;;;16.20;99.90;;;;;;5094604;28;20443;-63
2022/12/31 16:11:43;;;;;;;4.43;1.55;;;16.20;99.90;;;;;;5094247;28;20426;-61
2022/12/31 16:14:17;;;;;;;5.60;2.15;;;16.10;99.90;;;;;;5094091;28;20365;-60
2022/12/31 16:16:52;;;;;;;10.15;2.28;;;16.20;99.90;;;;;;5075858;28;20103;-61
2022/12/31 16:19:40;;;;;;;4.75;1.50;;;16.20;99.90;;;;;;5105107;27;20030;-61
2022/12/31 16:22:15;;;;;;;4.57;1.25;;;16.20;99.90;;;;;;5111988;28;20058;-61
2022/12/31 16:24:41;;;;;;;6.03;1.90;;;16.20;99.90;;;;;;5102602;28;20106;-61
2022/12/31 16:27:13;;;;;;;9.40;2.42;;;16.20;99.90;;;;;;5111094;28;20480;-61
2022/12/31 16:29:44;;;;;;;6.88;1.55;;;16.10;99.90;;;;;;5111685;28;20027;-61
2022/12/31 16:32:16;;;;;;;6.43;1.42;;;16.20;99.90;;;;;;5108317;28;20063;-61
2022/12/31 16:34:42;;;;;;;6.07;1.40;;;16.20;99.90;;;;;;5110162;28;20039;-61
2022/12/31 16:37:17;;;;;;;4.82;1.60;;;16.10;99.90;;;;;;5098703;28;20418;-61
2022/12/31 16:39:55;;;;;;;6.35;1.73;;;16.10;99.90;;;;;;5096308;28;20028;-61
2022/12/31 16:42:26;;;;;;;4.60;1.40;;;16.10;99.90;;;;;;5086896;28;20101;-61
2022/12/31 16:44:54;;;;;;;5.82;1.30;;;16.10;99.90;;;;;;5093865;27;20497;-61
2022/12/31 16:47:30;;;;;;;5.68;1.92;;;16.10;99.90;;;;;;5089026;28;20162;-61
2022/12/31 16:50:03;;;;;;;6.40;1.83;;;16.10;99.90;;;;;;5100015;28;20206;-61
2022/12/31 16:52:36;;;;;;;4.95;1.70;;;16.10;99.90;;;;;;5098266;28;20031;-61
2022/12/31 16:55:07;;;;;;;3.67;1.35;;;16.00;99.90;;;;;;5102783;28;20052;-61
2022/12/31 16:57:33;;;;;;;3.13;1.20;;;16.00;99.90;;;;;;5099942;28;20028;-61
2022/12/31 17:00:15;;;;;;;7.15;2.15;;;15.90;99.90;;;;;;5093946;28;20045;-61
2022/12/31 17:02:42;;;;;;;6.68;1.50;;;15.90;99.90;;;;;;5092479;28;20157;-61
2022/12/31 17:05:23;;;;;;;5.93;1.77;;;15.90;99.90;;;;;;5100446;28;20054;-61
2022/12/31 17:07:49;;;;;;;5.15;1.98;;;15.90;99.90;;;;;;5093918;28;20028;-61
2022/12/31 17:10:31;;;;;;;6.82;1.90;;;15.80;99.90;;;;;;5090451;28;20557;-61
2022/12/31 17:12:59;;;;;;;6.30;1.73;;;15.80;99.90;;;;;;5090248;28;20110;-61
2022/12/31 17:15:27;;;;;;;5.20;1.65;;;15.80;99.90;;;;;;5090235;28;20028;-61
2022/12/31 17:18:00;;;;;;;5.97;1.50;;;15.80;99.90;;;;;;5119657;27;20118;-61
2022/12/31 17:20:29;;;;;;;9.50;2.25;;;15.80;99.90;;;;;;5096189;28;20072;-61
2022/12/31 17:22:58;;;;;;;7.32;1.98;;;15.80;99.90;;;;;;5093517;28;20073;-61
2022/12/31 17:25:27;;;;;;;6.65;2.42;;;15.80;99.90;;;;;;5092963;28;20081;-61
2022/12/31 17:28:04;;;;;;;6.05;2.00;;;15.80;99.90;;;;;;5092555;28;20040;-61
2022/12/31 17:30:33;;;;;;;7.80;2.65;;;15.70;99.90;;;;;;5093486;28;20036;-61
2022/12/31 17:33:07;;;;;;;6.55;2.20;;;15.70;99.90;;;;;;5089797;28;20058;-61
2022/12/31 17:35:44;;;;;;;6.60;2.00;;;15.70;99.90;;;;;;5089630;28;20397;-61
2022/12/31 17:38:21;;;;;;;7.40;2.45;;;15.70;99.90;;;;;;5089601;28;20065;-61
2022/12/31 17:41:05;;;;;;;4.68;2.10;;;15.70;99.90;;;;;;5098805;28;20034;-61
2022/12/31 17:43:40;;;;;;;5.57;2.42;;;15.70;99.90;;;;;;5095278;28;20024;-61
2022/12/31 17:46:12;;;;;;;5.40;2.40;;;15.60;99.90;;;;;;5092717;28;20499;-61
2022/12/31 17:48:38;;;;;;;6.82;2.97;;;15.60;99.90;;;;;;5096918;28;20259;-61
2022/12/31 17:51:04;;;;;;;6.68;2.40;;;15.60;99.90;;;;;;5075883;28;20840;-61
2022/12/31 17:53:29;;;;;;;5.82;2.50;;;15.60;99.90;;;;;;5092206;28;20051;-61
2022/12/31 17:55:59;;;;;;;8.55;3.30;;;15.60;99.90;;;;;;5092258;28;20675;-61
2022/12/31 17:58:35;;;;;;;6.20;2.22;;;15.60;99.90;;;;;;5089405;28;20028;-61
2022/12/31 18:01:04;;;;;;;6.15;2.42;;;15.60;99.80;;;;;;5077468;28;20028;-61
2022/12/31 18:03:30;;;;;;;4.97;2.67;;;15.60;99.10;;;;;;5089942;28;20028;-61
2022/12/31 18:05:55;;;;;;;6.32;2.53;;;15.60;98.90;;;;;;5103064;28;20047;-61
2022/12/31 18:08:21;;;;;;;8.88;3.15;;;15.60;98.70;;;;;;5097979;28;20027;-61
2022/12/31 18:10:47;;;;;;;6.95;2.72;;;15.70;98.70;;;;;;5106487;28;20034;-61
2022/12/31 18:13:16;;;;;;;8.00;2.90;;;15.60;98.60;;;;;;5105699;28;20491;-61
2022/12/31 18:15:42;;;;;;;9.77;3.08;;;15.60;98.70;;;;;;5107324;28;20039;-61
2022/12/31 18:18:24;;;;;;;6.78;2.83;;;15.60;98.90;;;;;;5104119;28;20113;-61
2022/12/31 18:21:01;;;;;;;8.23;3.17;;;15.50;99.00;;;;;;5105492;28;20491;-61
2022/12/31 18:23:39;;;;;;;9.57;3.50;;;15.50;98.90;;;;;;5106349;28;20122;-61
2022/12/31 18:26:05;;;;;;;8.13;3.13;;;15.50;99.40;;;;;;5088529;28;20047;-61
2022/12/31 18:28:30;;;;;;;11.13;4.40;;;15.40;98.90;;;;;;5090318;28;20385;-61
2022/12/31 18:30:56;;;;;;;8.38;2.83;;;15.40;98.60;;;;;;5097459;28;20476;-61
2022/12/31 18:33:23;;;;;;;7.97;3.33;;;15.50;98.50;;;;;;5096308;28;20233;-61
2022/12/31 18:35:50;;;;;;;8.02;3.15;;;15.40;98.00;;;;;;5088674;28;20020;-61
2022/12/31 18:38:18;;;;;;;6.47;3.03;;;15.50;97.80;;;;;;5073127;28;20455;-61